sensor_id;sensor_type;location;lat;lon;timestamp;P1;durP1;ratioP1;P2;durP2;ratioP2
64619;SDS011;51029;51.058;13.826;2023-08-17T00:02:10;10.20;;;9.30;;
64619;SDS011;51029;51.058;13.826;2023-08-17T00:04:37;10.53;;;9.53;;
64619;SDS011;51029;51.058;13.826;2023-08-17T00:07:03;10.77;;;9.67;;
64619;SDS011;51029;51.058;13.826;2023-08-17T00:09:28;10.53;;;9.27;;
64619;SDS011;51029;51.058;13.826;2023-08-17T00:11:54;10.87;;;9.23;;
64619;SDS011;51029;51.058;13.826;2023-08-17T00:14:20;11.33;;;10.23;;
64619;SDS011;51029;51.058;13.826;2023-08-17T00:16:45;11.00;;;9.93;;
64619;SDS011;51029;51.058;13.826;2023-08-17T00:19:11;11.23;;;10.10;;
64619;SDS011;51029;51.058;13.826;2023-08-17T00:21:36;10.70;;;9.63;;
64619;SDS011;51029;51.058;13.826;2023-08-17T00:24:02;10.63;;;9.40;;
64619;SDS011;51029;51.058;13.826;2023-08-17T00:26:29;10.77;;;9.77;;
64619;SDS011;51029;51.058;13.826;2023-08-17T00:28:54;10.13;;;8.90;;
64619;SDS011;51029;51.058;13.826;2023-08-17T00:31:20;11.47;;;9.87;;
64619;SDS011;51029;51.058;13.826;2023-08-17T00:33:45;10.67;;;9.67;;
64619;SDS011;51029;51.058;13.826;2023-08-17T00:36:11;11.20;;;9.57;;
64619;SDS011;51029;51.058;13.826;2023-08-17T00:38:36;10.70;;;9.60;;
64619;SDS011;51029;51.058;13.826;2023-08-17T00:41:02;10.87;;;9.87;;
64619;SDS011;51029;51.058;13.826;2023-08-17T00:43:27;10.90;;;9.67;;
64619;SDS011;51029;51.058;13.826;2023-08-17T00:45:53;10.93;;;9.83;;
64619;SDS011;51029;51.058;13.826;2023-08-17T00:48:19;10.77;;;9.77;;
64619;SDS011;51029;51.058;13.826;2023-08-17T00:50:45;10.70;;;9.70;;
64619;SDS011;51029;51.058;13.826;2023-08-17T00:53:13;10.97;;;9.70;;
64619;SDS011;51029;51.058;13.826;2023-08-17T00:55:41;11.63;;;10.43;;
64619;SDS011;51029;51.058;13.826;2023-08-17T00:58:07;11.20;;;10.10;;
64619;SDS011;51029;51.058;13.826;2023-08-17T01:00:33;11.47;;;10.37;;
64619;SDS011;51029;51.058;13.826;2023-08-17T01:02:59;10.57;;;9.57;;
64619;SDS011;51029;51.058;13.826;2023-08-17T01:05:24;10.83;;;9.87;;
64619;SDS011;51029;51.058;13.826;2023-08-17T01:07:50;10.27;;;9.27;;
64619;SDS011;51029;51.058;13.826;2023-08-17T01:10:16;11.73;;;10.50;;
64619;SDS011;51029;51.058;13.826;2023-08-17T01:13:02;12.30;;;10.27;;
64619;SDS011;51029;51.058;13.826;2023-08-17T01:15:36;12.83;;;10.63;;
64619;SDS011;51029;51.058;13.826;2023-08-17T01:18:11;12.17;;;10.67;;
64619;SDS011;51029;51.058;13.826;2023-08-17T01:20:50;12.27;;;10.97;;
64619;SDS011;51029;51.058;13.826;2023-08-17T01:23:18;12.00;;;10.80;;
64619;SDS011;51029;51.058;13.826;2023-08-17T01:25:44;11.47;;;10.30;;
64619;SDS011;51029;51.058;13.826;2023-08-17T01:28:10;10.93;;;9.93;;
64619;SDS011;51029;51.058;13.826;2023-08-17T01:33:09;12.00;;;10.90;;
64619;SDS011;51029;51.058;13.826;2023-08-17T01:35:52;13.17;;;10.50;;
64619;SDS011;51029;51.058;13.826;2023-08-17T01:38:25;10.90;;;9.90;;
64619;SDS011;51029;51.058;13.826;2023-08-17T01:40:54;11.23;;;10.10;;
64619;SDS011;51029;51.058;13.826;2023-08-17T01:43:21;10.70;;;9.70;;
64619;SDS011;51029;51.058;13.826;2023-08-17T01:45:47;10.73;;;9.70;;
64619;SDS011;51029;51.058;13.826;2023-08-17T01:48:13;11.20;;;9.60;;
64619;SDS011;51029;51.058;13.826;2023-08-17T01:50:39;10.87;;;9.93;;
64619;SDS011;51029;51.058;13.826;2023-08-17T01:53:04;11.77;;;10.60;;
64619;SDS011;51029;51.058;13.826;2023-08-17T01:55:30;11.27;;;10.17;;
64619;SDS011;51029;51.058;13.826;2023-08-17T01:57:55;11.40;;;10.23;;
64619;SDS011;51029;51.058;13.826;2023-08-17T02:00:21;11.60;;;10.50;;
64619;SDS011;51029;51.058;13.826;2023-08-17T02:02:46;11.80;;;10.63;;
64619;SDS011;51029;51.058;13.826;2023-08-17T02:05:12;10.50;;;9.50;;
64619;SDS011;51029;51.058;13.826;2023-08-17T02:07:37;10.53;;;9.53;;
64619;SDS011;51029;51.058;13.826;2023-08-17T02:10:03;11.20;;;10.20;;
64619;SDS011;51029;51.058;13.826;2023-08-17T02:12:29;11.27;;;10.13;;
64619;SDS011;51029;51.058;13.826;2023-08-17T02:14:54;10.60;;;9.60;;
64619;SDS011;51029;51.058;13.826;2023-08-17T02:17:20;10.50;;;9.40;;
64619;SDS011;51029;51.058;13.826;2023-08-17T02:19:47;10.60;;;9.60;;
64619;SDS011;51029;51.058;13.826;2023-08-17T02:22:13;12.43;;;9.90;;
64619;SDS011;51029;51.058;13.826;2023-08-17T02:24:39;10.27;;;8.70;;
64619;SDS011;51029;51.058;13.826;2023-08-17T02:27:04;9.87;;;8.90;;
64619;SDS011;51029;51.058;13.826;2023-08-17T02:29:30;9.53;;;8.73;;
64619;SDS011;51029;51.058;13.826;2023-08-17T02:31:55;9.90;;;8.97;;
64619;SDS011;51029;51.058;13.826;2023-08-17T02:34:21;9.83;;;8.83;;
64619;SDS011;51029;51.058;13.826;2023-08-17T02:36:46;9.67;;;8.70;;
64619;SDS011;51029;51.058;13.826;2023-08-17T02:39:12;10.10;;;9.10;;
64619;SDS011;51029;51.058;13.826;2023-08-17T02:41:37;10.17;;;9.17;;
64619;SDS011;51029;51.058;13.826;2023-08-17T02:44:04;9.23;;;8.33;;
64619;SDS011;51029;51.058;13.826;2023-08-17T02:46:29;9.13;;;8.23;;
64619;SDS011;51029;51.058;13.826;2023-08-17T02:48:55;9.73;;;8.83;;
64619;SDS011;51029;51.058;13.826;2023-08-17T02:51:20;10.90;;;9.20;;
64619;SDS011;51029;51.058;13.826;2023-08-17T02:53:46;10.03;;;9.17;;
64619;SDS011;51029;51.058;13.826;2023-08-17T02:56:11;9.20;;;8.40;;
64619;SDS011;51029;51.058;13.826;2023-08-17T02:58:38;9.33;;;8.30;;
64619;SDS011;51029;51.058;13.826;2023-08-17T03:01:07;9.20;;;8.30;;
64619;SDS011;51029;51.058;13.826;2023-08-17T03:03:33;8.73;;;7.93;;
64619;SDS011;51029;51.058;13.826;2023-08-17T03:05:58;8.80;;;7.90;;
64619;SDS011;51029;51.058;13.826;2023-08-17T03:08:24;9.17;;;8.27;;
64619;SDS011;51029;51.058;13.826;2023-08-17T03:10:50;8.83;;;8.07;;
64619;SDS011;51029;51.058;13.826;2023-08-17T03:13:15;9.47;;;8.57;;
64619;SDS011;51029;51.058;13.826;2023-08-17T03:15:41;9.10;;;8.23;;
64619;SDS011;51029;51.058;13.826;2023-08-17T03:18:06;10.30;;;9.30;;
64619;SDS011;51029;51.058;13.826;2023-08-17T03:20:32;9.93;;;8.40;;
64619;SDS011;51029;51.058;13.826;2023-08-17T03:22:57;9.07;;;8.27;;
64619;SDS011;51029;51.058;13.826;2023-08-17T03:25:23;9.50;;;8.60;;
64619;SDS011;51029;51.058;13.826;2023-08-17T03:27:49;9.40;;;8.50;;
64619;SDS011;51029;51.058;13.826;2023-08-17T03:30:15;9.23;;;8.40;;
64619;SDS011;51029;51.058;13.826;2023-08-17T03:32:40;9.13;;;8.30;;
64619;SDS011;51029;51.058;13.826;2023-08-17T03:35:07;9.17;;;8.37;;
64619;SDS011;51029;51.058;13.826;2023-08-17T03:37:33;9.23;;;8.43;;
64619;SDS011;51029;51.058;13.826;2023-08-17T03:39:59;10.77;;;8.20;;
64619;SDS011;51029;51.058;13.826;2023-08-17T03:42:25;10.00;;;8.63;;
64619;SDS011;51029;51.058;13.826;2023-08-17T03:44:51;10.13;;;9.10;;
64619;SDS011;51029;51.058;13.826;2023-08-17T03:47:17;9.47;;;8.53;;
64619;SDS011;51029;51.058;13.826;2023-08-17T03:49:43;11.23;;;8.90;;
64619;SDS011;51029;51.058;13.826;2023-08-17T03:52:09;8.40;;;7.47;;
64619;SDS011;51029;51.058;13.826;2023-08-17T03:54:35;8.93;;;8.07;;
64619;SDS011;51029;51.058;13.826;2023-08-17T03:57:01;9.13;;;8.23;;
64619;SDS011;51029;51.058;13.826;2023-08-17T03:59:27;9.73;;;8.60;;
64619;SDS011;51029;51.058;13.826;2023-08-17T04:01:52;8.87;;;8.07;;
64619;SDS011;51029;51.058;13.826;2023-08-17T04:04:18;9.70;;;8.80;;
64619;SDS011;51029;51.058;13.826;2023-08-17T04:06:44;9.53;;;8.53;;
64619;SDS011;51029;51.058;13.826;2023-08-17T04:09:09;9.27;;;8.43;;
64619;SDS011;51029;51.058;13.826;2023-08-17T04:11:35;9.20;;;8.40;;
64619;SDS011;51029;51.058;13.826;2023-08-17T04:14:03;9.27;;;8.40;;
64619;SDS011;51029;51.058;13.826;2023-08-17T04:16:29;9.57;;;8.67;;
64619;SDS011;51029;51.058;13.826;2023-08-17T04:18:55;9.20;;;8.40;;
64619;SDS011;51029;51.058;13.826;2023-08-17T04:21:21;8.93;;;8.03;;
64619;SDS011;51029;51.058;13.826;2023-08-17T04:23:46;9.83;;;8.83;;
64619;SDS011;51029;51.058;13.826;2023-08-17T04:26:12;10.13;;;8.97;;
64619;SDS011;51029;51.058;13.826;2023-08-17T04:28:38;10.00;;;8.93;;
64619;SDS011;51029;51.058;13.826;2023-08-17T04:31:03;9.03;;;8.13;;
64619;SDS011;51029;51.058;13.826;2023-08-17T04:33:29;8.87;;;7.97;;
64619;SDS011;51029;51.058;13.826;2023-08-17T04:35:55;9.00;;;7.70;;
64619;SDS011;51029;51.058;13.826;2023-08-17T04:38:20;9.67;;;8.77;;
64619;SDS011;51029;51.058;13.826;2023-08-17T04:40:46;11.73;;;8.63;;
64619;SDS011;51029;51.058;13.826;2023-08-17T04:43:12;8.70;;;7.90;;
64619;SDS011;51029;51.058;13.826;2023-08-17T04:45:37;9.30;;;8.33;;
64619;SDS011;51029;51.058;13.826;2023-08-17T04:48:03;9.97;;;8.00;;
64619;SDS011;51029;51.058;13.826;2023-08-17T04:50:30;8.97;;;8.07;;
64619;SDS011;51029;51.058;13.826;2023-08-17T04:52:55;9.03;;;8.13;;
64619;SDS011;51029;51.058;13.826;2023-08-17T04:55:21;8.87;;;8.07;;
64619;SDS011;51029;51.058;13.826;2023-08-17T04:57:46;10.57;;;8.43;;
64619;SDS011;51029;51.058;13.826;2023-08-17T05:00:12;9.00;;;8.13;;
64619;SDS011;51029;51.058;13.826;2023-08-17T05:02:40;8.93;;;7.93;;
64619;SDS011;51029;51.058;13.826;2023-08-17T05:05:06;8.27;;;7.47;;
64619;SDS011;51029;51.058;13.826;2023-08-17T05:07:34;8.87;;;8.10;;
64619;SDS011;51029;51.058;13.826;2023-08-17T05:10:00;8.33;;;7.50;;
64619;SDS011;51029;51.058;13.826;2023-08-17T05:12:26;11.50;;;9.50;;
64619;SDS011;51029;51.058;13.826;2023-08-17T05:14:52;8.60;;;7.80;;
64619;SDS011;51029;51.058;13.826;2023-08-17T05:17:17;8.73;;;7.80;;
64619;SDS011;51029;51.058;13.826;2023-08-17T05:19:43;9.20;;;7.80;;
64619;SDS011;51029;51.058;13.826;2023-08-17T05:22:09;9.57;;;7.77;;
64619;SDS011;51029;51.058;13.826;2023-08-17T05:24:35;9.67;;;8.47;;
64619;SDS011;51029;51.058;13.826;2023-08-17T05:27:01;10.83;;;9.03;;
64619;SDS011;51029;51.058;13.826;2023-08-17T05:29:26;9.47;;;8.57;;
64619;SDS011;51029;51.058;13.826;2023-08-17T05:31:52;10.20;;;9.30;;
64619;SDS011;51029;51.058;13.826;2023-08-17T05:34:18;11.30;;;9.67;;
64619;SDS011;51029;51.058;13.826;2023-08-17T05:36:43;10.97;;;9.93;;
64619;SDS011;51029;51.058;13.826;2023-08-17T05:39:09;11.47;;;10.27;;
64619;SDS011;51029;51.058;13.826;2023-08-17T05:41:34;10.70;;;9.60;;
64619;SDS011;51029;51.058;13.826;2023-08-17T05:44:00;10.90;;;9.70;;
64619;SDS011;51029;51.058;13.826;2023-08-17T05:46:25;9.60;;;8.70;;
64619;SDS011;51029;51.058;13.826;2023-08-17T05:48:51;8.93;;;8.13;;
64619;SDS011;51029;51.058;13.826;2023-08-17T05:51:16;8.30;;;7.50;;
64619;SDS011;51029;51.058;13.826;2023-08-17T05:53:42;8.17;;;7.37;;
64619;SDS011;51029;51.058;13.826;2023-08-17T05:56:07;10.97;;;7.93;;
64619;SDS011;51029;51.058;13.826;2023-08-17T05:58:33;8.50;;;7.70;;
64619;SDS011;51029;51.058;13.826;2023-08-17T06:01:05;8.53;;;7.73;;
64619;SDS011;51029;51.058;13.826;2023-08-17T06:03:32;8.57;;;7.70;;
64619;SDS011;51029;51.058;13.826;2023-08-17T06:05:58;8.00;;;6.97;;
64619;SDS011;51029;51.058;13.826;2023-08-17T06:08:23;9.30;;;8.40;;
64619;SDS011;51029;51.058;13.826;2023-08-17T06:10:49;8.67;;;7.77;;
64619;SDS011;51029;51.058;13.826;2023-08-17T06:13:14;9.33;;;8.43;;
64619;SDS011;51029;51.058;13.826;2023-08-17T06:15:40;9.33;;;8.37;;
64619;SDS011;51029;51.058;13.826;2023-08-17T06:18:05;8.80;;;8.10;;
64619;SDS011;51029;51.058;13.826;2023-08-17T06:20:31;8.77;;;7.97;;
64619;SDS011;51029;51.058;13.826;2023-08-17T06:22:56;8.33;;;7.53;;
64619;SDS011;51029;51.058;13.826;2023-08-17T06:25:22;9.30;;;7.50;;
64619;SDS011;51029;51.058;13.826;2023-08-17T06:27:51;8.90;;;8.00;;
64619;SDS011;51029;51.058;13.826;2023-08-17T06:30:17;8.20;;;7.50;;
64619;SDS011;51029;51.058;13.826;2023-08-17T06:32:42;8.87;;;8.07;;
64619;SDS011;51029;51.058;13.826;2023-08-17T06:35:08;8.10;;;7.40;;
64619;SDS011;51029;51.058;13.826;2023-08-17T06:37:34;9.90;;;8.90;;
64619;SDS011;51029;51.058;13.826;2023-08-17T06:40:00;9.93;;;9.13;;
64619;SDS011;51029;51.058;13.826;2023-08-17T06:42:26;10.27;;;9.13;;
64619;SDS011;51029;51.058;13.826;2023-08-17T06:44:51;10.03;;;9.17;;
64619;SDS011;51029;51.058;13.826;2023-08-17T06:47:17;10.73;;;9.73;;
64619;SDS011;51029;51.058;13.826;2023-08-17T06:49:42;10.80;;;9.70;;
64619;SDS011;51029;51.058;13.826;2023-08-17T06:52:08;10.70;;;9.60;;
64619;SDS011;51029;51.058;13.826;2023-08-17T06:54:33;12.17;;;10.97;;
64619;SDS011;51029;51.058;13.826;2023-08-17T06:57:00;16.57;;;12.27;;
64619;SDS011;51029;51.058;13.826;2023-08-17T06:59:26;12.53;;;11.23;;
64619;SDS011;51029;51.058;13.826;2023-08-17T07:01:51;14.50;;;11.37;;
64619;SDS011;51029;51.058;13.826;2023-08-17T07:04:17;12.90;;;11.57;;
64619;SDS011;51029;51.058;13.826;2023-08-17T07:06:43;13.90;;;11.63;;
64619;SDS011;51029;51.058;13.826;2023-08-17T07:09:08;11.10;;;9.97;;
64619;SDS011;51029;51.058;13.826;2023-08-17T07:11:37;10.87;;;9.77;;
64619;SDS011;51029;51.058;13.826;2023-08-17T07:14:03;10.77;;;9.67;;
64619;SDS011;51029;51.058;13.826;2023-08-17T07:16:28;10.00;;;9.10;;
64619;SDS011;51029;51.058;13.826;2023-08-17T07:18:54;10.30;;;9.20;;
64619;SDS011;51029;51.058;13.826;2023-08-17T07:21:19;14.97;;;9.70;;
64619;SDS011;51029;51.058;13.826;2023-08-17T07:23:45;10.43;;;9.40;;
64619;SDS011;51029;51.058;13.826;2023-08-17T07:26:12;10.27;;;9.00;;
64619;SDS011;51029;51.058;13.826;2023-08-17T07:28:37;9.80;;;8.87;;
64619;SDS011;51029;51.058;13.826;2023-08-17T07:31:03;9.57;;;8.60;;
64619;SDS011;51029;51.058;13.826;2023-08-17T07:33:30;9.30;;;8.40;;
64619;SDS011;51029;51.058;13.826;2023-08-17T07:35:56;9.70;;;7.60;;
64619;SDS011;51029;51.058;13.826;2023-08-17T07:38:23;7.93;;;7.13;;
64619;SDS011;51029;51.058;13.826;2023-08-17T07:40:48;7.43;;;6.73;;
64619;SDS011;51029;51.058;13.826;2023-08-17T07:43:14;8.13;;;7.33;;
64619;SDS011;51029;51.058;13.826;2023-08-17T07:45:40;8.00;;;7.20;;
64619;SDS011;51029;51.058;13.826;2023-08-17T07:48:05;7.00;;;6.40;;
64619;SDS011;51029;51.058;13.826;2023-08-17T07:50:31;8.37;;;7.57;;
64619;SDS011;51029;51.058;13.826;2023-08-17T07:52:56;7.33;;;6.63;;
64619;SDS011;51029;51.058;13.826;2023-08-17T07:55:22;8.70;;;7.87;;
64619;SDS011;51029;51.058;13.826;2023-08-17T07:57:48;8.00;;;7.10;;
64619;SDS011;51029;51.058;13.826;2023-08-17T08:00:14;7.80;;;7.00;;
64619;SDS011;51029;51.058;13.826;2023-08-17T08:02:40;8.10;;;7.40;;
64619;SDS011;51029;51.058;13.826;2023-08-17T08:05:05;13.30;;;8.93;;
64619;SDS011;51029;51.058;13.826;2023-08-17T08:07:31;8.90;;;7.90;;
64619;SDS011;51029;51.058;13.826;2023-08-17T08:09:57;10.80;;;9.00;;
64619;SDS011;51029;51.058;13.826;2023-08-17T08:12:22;10.03;;;9.10;;
64619;SDS011;51029;51.058;13.826;2023-08-17T08:14:48;10.53;;;8.77;;
64619;SDS011;51029;51.058;13.826;2023-08-17T08:17:14;9.17;;;8.27;;
64619;SDS011;51029;51.058;13.826;2023-08-17T08:19:39;9.00;;;8.10;;
64619;SDS011;51029;51.058;13.826;2023-08-17T08:22:05;8.43;;;7.70;;
64619;SDS011;51029;51.058;13.826;2023-08-17T08:24:30;8.60;;;7.80;;
64619;SDS011;51029;51.058;13.826;2023-08-17T08:26:59;8.50;;;7.70;;
64619;SDS011;51029;51.058;13.826;2023-08-17T08:29:26;7.93;;;7.13;;
64619;SDS011;51029;51.058;13.826;2023-08-17T08:31:52;8.30;;;7.57;;
64619;SDS011;51029;51.058;13.826;2023-08-17T08:34:18;7.80;;;7.00;;
64619;SDS011;51029;51.058;13.826;2023-08-17T08:36:44;9.17;;;7.10;;
64619;SDS011;51029;51.058;13.826;2023-08-17T08:39:09;8.17;;;7.20;;
64619;SDS011;51029;51.058;13.826;2023-08-17T08:41:35;7.60;;;6.77;;
64619;SDS011;51029;51.058;13.826;2023-08-17T08:44:02;8.87;;;6.77;;
64619;SDS011;51029;51.058;13.826;2023-08-17T08:46:29;7.63;;;6.60;;
64619;SDS011;51029;51.058;13.826;2023-08-17T08:48:57;6.93;;;6.33;;
64619;SDS011;51029;51.058;13.826;2023-08-17T08:51:25;7.77;;;7.07;;
64619;SDS011;51029;51.058;13.826;2023-08-17T08:54:02;7.40;;;6.53;;
64619;SDS011;51029;51.058;13.826;2023-08-17T08:56:28;6.82;;;5.93;;
64619;SDS011;51029;51.058;13.826;2023-08-17T08:58:57;6.68;;;6.07;;
64619;SDS011;51029;51.058;13.826;2023-08-17T09:01:26;6.85;;;6.18;;
64619;SDS011;51029;51.058;13.826;2023-08-17T09:03:53;6.75;;;6.25;;
64619;SDS011;51029;51.058;13.826;2023-08-17T09:06:20;8.85;;;7.00;;
64619;SDS011;51029;51.058;13.826;2023-08-17T09:08:48;7.63;;;5.82;;
64619;SDS011;51029;51.058;13.826;2023-08-17T09:11:15;6.90;;;5.80;;
64619;SDS011;51029;51.058;13.826;2023-08-17T09:13:41;6.53;;;5.93;;
64619;SDS011;51029;51.058;13.826;2023-08-17T09:16:07;6.13;;;5.53;;
64619;SDS011;51029;51.058;13.826;2023-08-17T09:18:32;6.22;;;5.68;;
64619;SDS011;51029;51.058;13.826;2023-08-17T09:20:59;6.72;;;5.90;;
64619;SDS011;51029;51.058;13.826;2023-08-17T09:23:26;5.95;;;5.43;;
64619;SDS011;51029;51.058;13.826;2023-08-17T09:25:51;6.43;;;5.78;;
64619;SDS011;51029;51.058;13.826;2023-08-17T09:28:19;9.23;;;7.03;;
64619;SDS011;51029;51.058;13.826;2023-08-17T09:30:52;8.70;;;5.50;;
64619;SDS011;51029;51.058;13.826;2023-08-17T09:33:19;7.70;;;5.40;;
64619;SDS011;51029;51.058;13.826;2023-08-17T09:35:49;6.18;;;5.63;;
64619;SDS011;51029;51.058;13.826;2023-08-17T09:38:16;5.97;;;5.40;;
64619;SDS011;51029;51.058;13.826;2023-08-17T09:40:42;5.88;;;5.45;;
64619;SDS011;51029;51.058;13.826;2023-08-17T09:43:08;5.88;;;5.32;;
64619;SDS011;51029;51.058;13.826;2023-08-17T09:45:35;6.07;;;5.47;;
64619;SDS011;51029;51.058;13.826;2023-08-17T09:48:05;7.50;;;5.32;;
64619;SDS011;51029;51.058;13.826;2023-08-17T09:50:31;7.63;;;6.00;;
64619;SDS011;51029;51.058;13.826;2023-08-17T09:52:57;6.22;;;5.68;;
64619;SDS011;51029;51.058;13.826;2023-08-17T09:55:23;7.65;;;5.40;;
64619;SDS011;51029;51.058;13.826;2023-08-17T09:57:49;6.80;;;5.38;;
64619;SDS011;51029;51.058;13.826;2023-08-17T10:00:16;7.00;;;5.80;;
64619;SDS011;51029;51.058;13.826;2023-08-17T10:02:47;5.53;;;5.03;;
64619;SDS011;51029;51.058;13.826;2023-08-17T10:05:19;5.90;;;5.40;;
64619;SDS011;51029;51.058;13.826;2023-08-17T10:07:53;5.68;;;5.18;;
64619;SDS011;51029;51.058;13.826;2023-08-17T10:10:22;7.13;;;5.53;;
64619;SDS011;51029;51.058;13.826;2023-08-17T10:13:06;6.63;;;6.03;;
64619;SDS011;51029;51.058;13.826;2023-08-17T10:15:37;6.32;;;5.82;;
64619;SDS011;51029;51.058;13.826;2023-08-17T10:21:21;7.60;;;6.43;;
64619;SDS011;51029;51.058;13.826;2023-08-17T10:23:52;5.80;;;5.30;;
64619;SDS011;51029;51.058;13.826;2023-08-17T10:26:19;6.18;;;5.57;;
64619;SDS011;51029;51.058;13.826;2023-08-17T10:28:46;6.75;;;6.05;;
64619;SDS011;51029;51.058;13.826;2023-08-17T10:31:13;6.63;;;5.65;;
64619;SDS011;51029;51.058;13.826;2023-08-17T10:33:39;5.82;;;5.32;;
64619;SDS011;51029;51.058;13.826;2023-08-17T10:36:08;6.90;;;4.93;;
64619;SDS011;51029;51.058;13.826;2023-08-17T10:38:34;5.68;;;5.18;;
64619;SDS011;51029;51.058;13.826;2023-08-17T10:43:52;6.63;;;4.60;;
64619;SDS011;51029;51.058;13.826;2023-08-17T10:46:31;5.53;;;5.00;;
64619;SDS011;51029;51.058;13.826;2023-08-17T10:49:06;5.72;;;5.15;;
64619;SDS011;51029;51.058;13.826;2023-08-17T10:51:33;5.40;;;4.57;;
64619;SDS011;51029;51.058;13.826;2023-08-17T10:54:00;4.90;;;4.47;;
64619;SDS011;51029;51.058;13.826;2023-08-17T10:56:28;5.70;;;4.70;;
64619;SDS011;51029;51.058;13.826;2023-08-17T10:58:54;6.07;;;4.65;;
64619;SDS011;51029;51.058;13.826;2023-08-17T11:04:10;5.70;;;4.40;;
64619;SDS011;51029;51.058;13.826;2023-08-17T11:06:36;6.45;;;4.43;;
64619;SDS011;51029;51.058;13.826;2023-08-17T11:09:05;5.22;;;4.75;;
64619;SDS011;51029;51.058;13.826;2023-08-17T11:11:32;5.00;;;4.60;;
64619;SDS011;51029;51.058;13.826;2023-08-17T11:13:58;4.65;;;4.25;;
64619;SDS011;51029;51.058;13.826;2023-08-17T11:16:23;4.78;;;4.32;;
64619;SDS011;51029;51.058;13.826;2023-08-17T11:18:49;5.55;;;4.43;;
64619;SDS011;51029;51.058;13.826;2023-08-17T11:21:16;6.03;;;4.55;;
64619;SDS011;51029;51.058;13.826;2023-08-17T11:23:42;4.43;;;4.10;;
64619;SDS011;51029;51.058;13.826;2023-08-17T11:26:08;6.30;;;4.30;;
64619;SDS011;51029;51.058;13.826;2023-08-17T11:28:34;4.80;;;4.28;;
64619;SDS011;51029;51.058;13.826;2023-08-17T11:31:06;4.68;;;4.15;;
64619;SDS011;51029;51.058;13.826;2023-08-17T11:33:37;6.00;;;4.10;;
64619;SDS011;51029;51.058;13.826;2023-08-17T11:36:04;5.18;;;3.75;;
64619;SDS011;51029;51.058;13.826;2023-08-17T11:38:34;3.75;;;3.45;;
64619;SDS011;51029;51.058;13.826;2023-08-17T11:41:07;4.97;;;4.15;;
64619;SDS011;51029;51.058;13.826;2023-08-17T11:43:34;4.45;;;4.05;;
64619;SDS011;51029;51.058;13.826;2023-08-17T11:46:00;5.30;;;3.80;;
64619;SDS011;51029;51.058;13.826;2023-08-17T11:48:26;5.15;;;3.83;;
64619;SDS011;51029;51.058;13.826;2023-08-17T11:50:53;3.95;;;3.65;;
64619;SDS011;51029;51.058;13.826;2023-08-17T11:53:20;3.83;;;3.53;;
64619;SDS011;51029;51.058;13.826;2023-08-17T11:55:46;4.85;;;3.47;;
64619;SDS011;51029;51.058;13.826;2023-08-17T11:58:11;4.25;;;3.72;;
64619;SDS011;51029;51.058;13.826;2023-08-17T12:00:41;4.47;;;3.60;;
64619;SDS011;51029;51.058;13.826;2023-08-17T12:03:12;4.32;;;3.40;;
64619;SDS011;51029;51.058;13.826;2023-08-17T12:05:39;3.80;;;3.50;;
64619;SDS011;51029;51.058;13.826;2023-08-17T12:08:07;4.18;;;3.08;;
64619;SDS011;51029;51.058;13.826;2023-08-17T12:10:32;3.90;;;3.30;;
64619;SDS011;51029;51.058;13.826;2023-08-17T12:12:58;3.97;;;3.30;;
64619;SDS011;51029;51.058;13.826;2023-08-17T12:15:29;4.68;;;3.00;;
64619;SDS011;51029;51.058;13.826;2023-08-17T12:17:59;3.50;;;2.85;;
64619;SDS011;51029;51.058;13.826;2023-08-17T12:20:26;3.72;;;3.05;;
64619;SDS011;51029;51.058;13.826;2023-08-17T12:22:52;3.42;;;2.92;;
64619;SDS011;51029;51.058;13.826;2023-08-17T12:25:20;4.30;;;3.08;;
64619;SDS011;51029;51.058;13.826;2023-08-17T12:27:47;2.50;;;2.30;;
64619;SDS011;51029;51.058;13.826;2023-08-17T12:30:16;4.72;;;2.63;;
64619;SDS011;51029;51.058;13.826;2023-08-17T12:32:53;4.45;;;2.80;;
64619;SDS011;51029;51.058;13.826;2023-08-17T12:35:18;4.43;;;2.95;;
64619;SDS011;51029;51.058;13.826;2023-08-17T12:37:46;6.30;;;3.15;;
64619;SDS011;51029;51.058;13.826;2023-08-17T12:40:12;5.95;;;3.20;;
64619;SDS011;51029;51.058;13.826;2023-08-17T12:42:38;5.07;;;3.40;;
64619;SDS011;51029;51.058;13.826;2023-08-17T12:45:03;4.28;;;3.50;;
64619;SDS011;51029;51.058;13.826;2023-08-17T12:47:29;5.57;;;5.07;;
64619;SDS011;51029;51.058;13.826;2023-08-17T12:49:55;5.75;;;4.18;;
64619;SDS011;51029;51.058;13.826;2023-08-17T12:52:20;4.88;;;4.10;;
64619;SDS011;51029;51.058;13.826;2023-08-17T12:54:46;4.60;;;4.07;;
64619;SDS011;51029;51.058;13.826;2023-08-17T12:57:11;4.15;;;3.85;;
64619;SDS011;51029;51.058;13.826;2023-08-17T12:59:37;4.10;;;3.70;;
64619;SDS011;51029;51.058;13.826;2023-08-17T13:02:02;3.65;;;3.35;;
64619;SDS011;51029;51.058;13.826;2023-08-17T13:04:28;4.88;;;3.30;;
64619;SDS011;51029;51.058;13.826;2023-08-17T13:06:53;4.18;;;3.05;;
64619;SDS011;51029;51.058;13.826;2023-08-17T13:09:20;3.28;;;2.85;;
64619;SDS011;51029;51.058;13.826;2023-08-17T13:11:46;5.18;;;2.92;;
64619;SDS011;51029;51.058;13.826;2023-08-17T13:14:12;4.85;;;3.10;;
64619;SDS011;51029;51.058;13.826;2023-08-17T13:16:39;4.07;;;3.00;;
64619;SDS011;51029;51.058;13.826;2023-08-17T13:19:04;5.15;;;3.13;;
64619;SDS011;51029;51.058;13.826;2023-08-17T13:21:30;5.90;;;2.90;;
64619;SDS011;51029;51.058;13.826;2023-08-17T13:23:55;3.30;;;3.00;;
64619;SDS011;51029;51.058;13.826;2023-08-17T13:26:22;3.67;;;2.85;;
64619;SDS011;51029;51.058;13.826;2023-08-17T13:28:47;5.32;;;3.20;;
64619;SDS011;51029;51.058;13.826;2023-08-17T13:31:13;4.53;;;3.22;;
64619;SDS011;51029;51.058;13.826;2023-08-17T13:33:38;3.55;;;3.25;;
64619;SDS011;51029;51.058;13.826;2023-08-17T13:36:04;4.45;;;3.30;;
64619;SDS011;51029;51.058;13.826;2023-08-17T13:38:30;6.03;;;3.70;;
64619;SDS011;51029;51.058;13.826;2023-08-17T13:40:56;4.45;;;3.60;;
64619;SDS011;51029;51.058;13.826;2023-08-17T13:43:22;4.07;;;3.70;;
64619;SDS011;51029;51.058;13.826;2023-08-17T13:45:47;5.85;;;4.38;;
64619;SDS011;51029;51.058;13.826;2023-08-17T13:48:13;8.55;;;4.18;;
64619;SDS011;51029;51.058;13.826;2023-08-17T13:50:39;4.85;;;4.00;;
64619;SDS011;51029;51.058;13.826;2023-08-17T13:53:05;6.10;;;4.35;;
64619;SDS011;51029;51.058;13.826;2023-08-17T13:55:30;5.88;;;4.65;;
64619;SDS011;51029;51.058;13.826;2023-08-17T13:57:56;5.45;;;4.68;;
64619;SDS011;51029;51.058;13.826;2023-08-17T14:00:23;6.15;;;5.00;;
64619;SDS011;51029;51.058;13.826;2023-08-17T14:02:49;5.85;;;5.13;;
64619;SDS011;51029;51.058;13.826;2023-08-17T14:05:14;7.40;;;5.18;;
64619;SDS011;51029;51.058;13.826;2023-08-17T14:07:40;8.48;;;5.40;;
64619;SDS011;51029;51.058;13.826;2023-08-17T14:10:06;8.88;;;6.25;;
64619;SDS011;51029;51.058;13.826;2023-08-17T14:12:31;6.05;;;5.45;;
64619;SDS011;51029;51.058;13.826;2023-08-17T14:14:58;7.00;;;5.43;;
64619;SDS011;51029;51.058;13.826;2023-08-17T14:17:24;7.68;;;6.40;;
64619;SDS011;51029;51.058;13.826;2023-08-17T14:19:50;7.47;;;5.63;;
64619;SDS011;51029;51.058;13.826;2023-08-17T14:22:15;6.82;;;6.10;;
64619;SDS011;51029;51.058;13.826;2023-08-17T14:24:41;6.45;;;5.85;;
64619;SDS011;51029;51.058;13.826;2023-08-17T14:27:06;8.90;;;6.32;;
64619;SDS011;51029;51.058;13.826;2023-08-17T14:29:32;7.82;;;6.15;;
64619;SDS011;51029;51.058;13.826;2023-08-17T14:31:57;6.85;;;6.25;;
64619;SDS011;51029;51.058;13.826;2023-08-17T14:34:23;7.50;;;6.78;;
64619;SDS011;51029;51.058;13.826;2023-08-17T14:36:48;9.10;;;6.38;;
64619;SDS011;51029;51.058;13.826;2023-08-17T14:39:14;8.52;;;6.90;;